createdAt,value
2023-03-25T00:00:18.881Z,0.68
2023-03-25T00:02:48.198Z,0.80
2023-03-25T00:05:17.212Z,0.80
2023-03-25T00:07:45.184Z,0.70
2023-03-25T00:10:13.708Z,0.80
2023-03-25T00:12:40.806Z,0.70
2023-03-25T00:15:09.314Z,0.73
2023-03-25T00:17:36.825Z,0.77
2023-03-25T00:20:07.355Z,0.80
2023-03-25T00:22:33.957Z,0.80
2023-03-25T00:25:00.540Z,0.70
2023-03-25T00:27:27.092Z,0.70
2023-03-25T00:29:53.723Z,0.80
2023-03-25T00:32:21.294Z,0.73
2023-03-25T00:34:47.911Z,0.65
2023-03-25T00:37:17.694Z,0.82
2023-03-25T00:39:45.757Z,0.80
2023-03-25T00:42:16.378Z,0.80
2023-03-25T00:44:42.938Z,1.00
2023-03-25T00:47:11.652Z,0.93
2023-03-25T00:49:38.506Z,1.00
2023-03-25T00:52:05.163Z,1.00
2023-03-25T00:54:34.195Z,0.85
2023-03-25T00:57:01.011Z,0.80
2023-03-25T00:59:27.712Z,1.00
2023-03-25T01:01:56.253Z,1.12
2023-03-25T01:04:23.024Z,1.05
2023-03-25T01:06:52.076Z,1.15
2023-03-25T01:09:19.967Z,1.20
2023-03-25T01:11:48.104Z,1.10
2023-03-25T01:14:18.428Z,1.17
2023-03-25T01:16:45.710Z,1.10
2023-03-25T01:19:13.034Z,1.10
2023-03-25T01:21:40.250Z,1.40
2023-03-25T01:24:08.311Z,1.30
2023-03-25T01:26:34.986Z,1.27
2023-03-25T01:29:01.860Z,1.62
2023-03-25T01:31:30.419Z,1.50
2023-03-25T01:33:57.878Z,1.40
2023-03-25T01:36:25.783Z,1.50
2023-03-25T01:38:52.406Z,1.70
2023-03-25T01:41:19.516Z,1.83
2023-03-25T01:44:08.910Z,1.55
2023-03-25T01:46:39.289Z,2.22
2023-03-25T01:49:10.015Z,2.40
2023-03-25T01:51:40.711Z,2.20
2023-03-25T01:54:08.200Z,1.83
2023-03-25T01:56:41.259Z,2.10
2023-03-25T01:59:11.180Z,2.17
2023-03-25T02:01:37.846Z,2.55
2023-03-25T02:04:10.072Z,2.45
2023-03-25T02:06:50.963Z,2.67
2023-03-25T02:09:20.058Z,2.20
2023-03-25T02:11:47.885Z,2.53
2023-03-25T02:14:22.360Z,2.47
2023-03-25T02:17:07.742Z,2.40
2023-03-25T02:20:08.446Z,2.42
2023-03-25T02:22:56.612Z,2.17
2023-03-25T02:25:36.244Z,2.22
2023-03-25T02:28:12.153Z,2.12
2023-03-25T02:30:41.768Z,2.50
2023-03-25T02:33:32.032Z,2.20
2023-03-25T02:36:31.350Z,2.15
2023-03-25T02:39:33.811Z,2.00
2023-03-25T02:42:18.114Z,2.30
2023-03-25T02:45:10.709Z,1.80
2023-03-25T02:47:51.990Z,2.20
2023-03-25T02:50:27.529Z,2.00
2023-03-25T02:52:59.934Z,1.90
2023-03-25T02:55:30.594Z,1.85
2023-03-25T02:58:00.271Z,1.95
2023-03-25T03:00:28.916Z,1.65
2023-03-25T03:03:01.451Z,1.60
2023-03-25T03:05:31.250Z,1.30
2023-03-25T03:08:22.801Z,1.50
2023-03-25T03:11:07.341Z,1.30
2023-03-25T03:14:18.816Z,1.50
2023-03-25T03:16:58.550Z,1.48
2023-03-25T03:19:55.682Z,1.23
2023-03-25T03:22:34.238Z,1.20
2023-03-25T03:25:22.861Z,1.25
2023-03-25T03:28:36.002Z,1.40
2023-03-25T03:31:48.770Z,1.70
2023-03-25T03:34:26.502Z,1.60
2023-03-25T03:36:57.898Z,1.60
2023-03-25T03:39:31.678Z,1.50
2023-03-25T03:42:08.074Z,1.73
2023-03-25T03:44:39.052Z,1.58
2023-03-25T03:47:18.360Z,1.50
2023-03-25T03:49:57.004Z,1.50
2023-03-25T03:52:47.242Z,1.98
2023-03-25T03:55:21.698Z,1.80
2023-03-25T03:57:56.262Z,1.80
2023-03-25T04:00:28.829Z,1.80
2023-03-25T04:03:14.540Z,2.00
2023-03-25T04:05:48.912Z,2.00
2023-03-25T04:08:37.750Z,1.98
2023-03-25T04:11:21.335Z,2.35
2023-03-25T04:13:52.210Z,2.35
2023-03-25T04:16:20.234Z,2.60
2023-03-25T04:18:48.287Z,2.60
2023-03-25T04:21:25.927Z,3.17
2023-03-25T04:23:52.812Z,2.80
2023-03-25T04:26:19.900Z,2.72
2023-03-25T04:28:47.243Z,2.97
2023-03-25T04:31:17.702Z,3.05
2023-03-25T04:33:48.721Z,3.12
2023-03-25T04:36:15.611Z,3.08
2023-03-25T04:38:45.809Z,2.65
2023-03-25T04:41:14.071Z,3.12
2023-03-25T04:43:41.891Z,3.05
2023-03-25T04:46:13.654Z,2.90
2023-03-25T04:48:41.705Z,3.28
2023-03-25T04:51:10.367Z,3.10
2023-03-25T04:53:37.465Z,3.12
2023-03-25T04:56:05.121Z,3.20
2023-03-25T04:58:32.476Z,3.15
2023-03-25T05:01:06.311Z,2.90
2023-03-25T05:03:33.759Z,3.00
2023-03-25T05:06:01.975Z,2.83
2023-03-25T05:08:29.336Z,3.08
2023-03-25T05:10:56.139Z,3.45
2023-03-25T05:13:22.848Z,3.60
2023-03-25T05:15:56.795Z,3.08
2023-03-25T05:18:23.578Z,3.00
2023-03-25T05:20:51.098Z,2.70
2023-03-25T05:23:19.600Z,2.85
2023-03-25T05:25:48.142Z,2.72
2023-03-25T05:28:15.255Z,2.30
2023-03-25T05:30:45.481Z,2.60
2023-03-25T05:33:18.023Z,2.65
2023-03-25T05:35:45.143Z,2.40
2023-03-25T05:38:14.560Z,1.73
2023-03-25T05:40:42.900Z,1.80
2023-03-25T05:43:23.264Z,1.80
2023-03-25T05:45:50.125Z,1.87
2023-03-25T05:48:16.994Z,1.75
2023-03-25T05:50:43.652Z,1.62
2023-03-25T05:53:15.547Z,1.52
2023-03-25T05:55:42.379Z,1.50
2023-03-25T05:58:09.228Z,1.20
2023-03-25T06:00:37.258Z,1.33
2023-03-25T06:03:07.082Z,1.17
2023-03-25T06:05:33.883Z,1.50
2023-03-25T06:08:01.886Z,1.55
2023-03-25T06:40:02.337Z,1.30
2023-03-25T06:42:29.441Z,1.10
2023-03-25T06:47:31.365Z,1.30
2023-03-25T06:49:57.911Z,1.52
2023-03-25T06:52:24.584Z,1.42
2023-03-25T06:54:51.343Z,1.60
2023-03-25T06:57:18.098Z,1.55
2023-03-25T06:59:44.647Z,1.50
2023-03-25T07:02:19.179Z,2.15
2023-03-25T07:05:05.284Z,1.85
2023-03-25T07:07:31.880Z,1.60
2023-03-25T07:09:58.433Z,1.60
2023-03-25T07:12:25.315Z,1.50
2023-03-25T07:14:55.984Z,1.48
2023-03-25T07:17:23.521Z,1.48
2023-03-25T07:19:50.441Z,1.67
2023-03-25T07:22:17.186Z,1.60
2023-03-25T07:24:44.346Z,1.50
2023-03-25T07:27:14.945Z,1.48
2023-03-25T07:29:41.614Z,2.17
2023-03-25T07:32:08.290Z,1.70
2023-03-25T07:34:35.510Z,1.58
2023-03-25T07:37:02.146Z,1.60
2023-03-25T07:39:28.715Z,2.05
2023-03-25T07:41:55.363Z,1.90
2023-03-25T07:44:21.977Z,2.00
2023-03-25T07:46:49.285Z,2.10
2023-03-25T07:49:17.066Z,1.80
2023-03-25T07:51:44.691Z,1.80
2023-03-25T07:54:11.623Z,1.50
2023-03-25T07:56:38.681Z,1.73
2023-03-25T07:59:05.610Z,1.50
2023-03-25T08:01:32.243Z,1.40
2023-03-25T08:03:58.856Z,1.25
2023-03-25T08:06:25.552Z,1.60
2023-03-25T08:08:54.452Z,1.35
2023-03-25T08:11:22.071Z,1.50
2023-03-25T08:13:48.754Z,1.37
2023-03-25T08:16:15.570Z,1.20
2023-03-25T08:18:45.110Z,1.30
2023-03-25T08:21:13.088Z,1.70
2023-03-25T08:23:39.797Z,1.37
2023-03-25T08:26:06.802Z,1.30
2023-03-25T08:28:33.551Z,1.50
2023-03-25T08:31:02.403Z,1.30
2023-03-25T08:33:34.392Z,1.30
2023-03-25T08:36:01.851Z,1.20
2023-03-25T08:38:34.291Z,1.42
2023-03-25T08:41:01.977Z,1.30
2023-03-25T08:43:28.607Z,0.90
2023-03-25T08:45:55.460Z,1.23
2023-03-25T08:48:23.149Z,1.10
2023-03-25T08:50:49.704Z,0.90
2023-03-25T08:53:16.531Z,1.10
2023-03-25T08:55:43.099Z,1.00
2023-03-25T08:58:09.663Z,1.08
2023-03-25T09:00:37.869Z,0.98
2023-03-25T09:03:05.137Z,0.98
2023-03-25T09:05:37.597Z,1.10
2023-03-25T09:08:04.645Z,1.05
2023-03-25T09:10:31.445Z,1.62
2023-03-25T09:12:58.056Z,0.93
2023-03-25T09:15:24.655Z,1.10
2023-03-25T09:17:51.215Z,1.20
2023-03-25T09:20:18.754Z,1.30
2023-03-25T09:22:45.479Z,1.12
2023-03-25T09:25:12.255Z,1.25
2023-03-25T09:27:38.860Z,1.50
2023-03-25T09:30:06.834Z,2.45
2023-03-25T09:32:34.125Z,1.10
2023-03-25T09:35:00.852Z,1.30
2023-03-25T09:37:27.427Z,1.52
2023-03-25T09:39:54.089Z,1.60
2023-03-25T09:42:47.727Z,1.10
2023-03-25T09:45:36.426Z,1.30
2023-03-25T09:48:29.291Z,2.20
2023-03-25T09:51:01.015Z,1.50
2023-03-25T09:53:30.562Z,1.70
2023-03-25T09:55:58.201Z,1.37
2023-03-25T09:58:34.560Z,1.12
2023-03-25T10:01:15.515Z,2.03
2023-03-25T10:04:19.545Z,1.48
2023-03-25T10:07:21.124Z,1.45
2023-03-25T10:10:18.793Z,1.77
2023-03-25T10:13:09.878Z,1.73
2023-03-25T10:15:53.151Z,1.55
2023-03-25T10:18:22.620Z,1.40
2023-03-25T10:21:07.198Z,1.30
2023-03-25T10:24:15.774Z,1.60
2023-03-25T10:26:55.590Z,1.60
2023-03-25T10:29:31.703Z,2.03
2023-03-25T10:32:03.566Z,1.65
2023-03-25T10:34:38.281Z,1.70
2023-03-25T10:37:10.283Z,1.70
2023-03-25T10:39:40.039Z,1.60
2023-03-25T10:42:21.602Z,1.50
2023-03-25T10:44:48.538Z,1.70
2023-03-25T10:47:33.277Z,1.90
2023-03-25T10:50:00.393Z,1.55
2023-03-25T10:52:27.370Z,1.60
2023-03-25T10:54:56.420Z,1.02
2023-03-25T10:57:28.017Z,1.00
2023-03-25T11:00:18.325Z,1.17
2023-03-25T11:02:46.421Z,1.37
2023-03-25T11:05:18.924Z,1.30
2023-03-25T11:07:53.172Z,1.15
2023-03-25T11:10:29.262Z,1.10
2023-03-25T11:12:58.460Z,1.58
2023-03-25T11:15:30.623Z,1.05
2023-03-25T11:18:04.932Z,1.42
2023-03-25T11:20:40.333Z,1.30
2023-03-25T11:23:19.231Z,1.00
2023-03-25T11:25:46.296Z,1.40
2023-03-25T11:28:44.563Z,1.12
2023-03-25T11:31:11.295Z,1.00
2023-03-25T11:33:39.161Z,0.85
2023-03-25T11:36:21.839Z,1.30
2023-03-25T11:38:56.631Z,1.00
2023-03-25T11:41:24.295Z,1.15
2023-03-25T11:43:50.972Z,0.90
2023-03-25T11:46:21.901Z,1.10
2023-03-25T11:48:50.225Z,1.00
2023-03-25T11:51:24.140Z,0.80
2023-03-25T11:54:09.497Z,0.93
2023-03-25T11:56:40.330Z,1.10
2023-03-25T11:59:27.020Z,1.00
2023-03-25T12:02:19.278Z,1.37
2023-03-25T12:05:02.833Z,0.70
2023-03-25T12:07:30.222Z,0.90
2023-03-25T12:09:59.309Z,0.80
2023-03-25T12:12:38.000Z,0.88
2023-03-25T12:15:27.009Z,0.90
2023-03-25T12:18:05.657Z,1.30
2023-03-25T12:21:04.718Z,0.80
2023-03-25T12:24:18.719Z,0.88
2023-03-25T12:27:08.299Z,1.10
2023-03-25T12:29:40.461Z,0.90
2023-03-25T12:32:16.115Z,0.70
2023-03-25T12:34:54.479Z,0.90
2023-03-25T12:37:33.096Z,0.80
2023-03-25T12:40:24.172Z,1.20
2023-03-25T12:43:05.285Z,0.82
2023-03-25T12:45:34.709Z,0.90
2023-03-25T12:48:09.874Z,0.70
2023-03-25T12:51:09.001Z,1.20
2023-03-25T12:53:56.820Z,0.90
2023-03-25T12:56:23.343Z,0.57
2023-03-25T12:59:02.417Z,0.70
2023-03-25T13:01:49.409Z,1.00
2023-03-25T13:04:19.722Z,0.85
2023-03-25T13:06:51.695Z,0.80
2023-03-25T13:09:41.597Z,0.93
2023-03-25T13:12:14.982Z,0.80
2023-03-25T13:15:27.845Z,0.90
2023-03-25T13:18:12.106Z,1.10
2023-03-25T13:20:49.529Z,1.48
2023-03-25T13:23:23.381Z,1.00
2023-03-25T13:25:57.661Z,0.80
2023-03-25T13:28:38.289Z,0.70
2023-03-25T13:31:08.389Z,0.70
2023-03-25T13:33:40.791Z,0.60
2023-03-25T13:36:29.637Z,0.50
2023-03-25T13:39:21.924Z,0.62
2023-03-25T13:41:56.840Z,0.80
2023-03-25T13:44:35.998Z,0.70
2023-03-25T13:47:30.327Z,0.90
2023-03-25T13:50:20.503Z,0.80
2023-03-25T13:52:54.136Z,0.93
2023-03-25T13:55:26.665Z,0.60
2023-03-25T13:58:27.042Z,0.70
2023-03-25T14:00:56.435Z,0.57
2023-03-25T14:03:54.823Z,0.80
2023-03-25T14:06:24.432Z,0.90
2023-03-25T14:09:07.838Z,1.00
2023-03-25T14:11:46.696Z,0.75
2023-03-25T14:14:18.177Z,0.70
2023-03-25T14:16:49.142Z,0.80
2023-03-25T14:19:20.578Z,1.00
2023-03-25T14:21:50.152Z,0.40
2023-03-25T14:24:26.370Z,0.70
2023-03-25T14:27:00.047Z,0.80
2023-03-25T14:29:34.422Z,0.70
2023-03-25T14:32:17.623Z,0.50
2023-03-25T14:34:47.235Z,0.70
2023-03-25T14:37:26.053Z,0.60
2023-03-25T14:39:55.133Z,0.82
2023-03-25T14:42:21.631Z,0.62
2023-03-25T14:44:54.457Z,0.73
2023-03-25T14:47:34.032Z,0.90
2023-03-25T14:50:22.237Z,0.60
2023-03-25T14:52:52.891Z,0.60
2023-03-25T14:55:31.814Z,0.80
2023-03-25T14:58:02.499Z,0.90
2023-03-25T15:00:34.195Z,0.80
2023-03-25T15:03:11.036Z,0.80
2023-03-25T15:05:39.693Z,0.70
2023-03-25T15:08:06.785Z,0.80
2023-03-25T15:10:49.830Z,0.82
2023-03-25T15:13:32.650Z,0.50
2023-03-25T15:16:03.613Z,0.50
2023-03-25T15:18:36.274Z,0.60
2023-03-25T15:21:08.574Z,0.60
2023-03-25T15:23:49.211Z,0.88
2023-03-25T15:26:18.765Z,0.60
2023-03-25T15:29:07.271Z,0.60
2023-03-25T15:31:42.407Z,0.70
2023-03-25T15:34:32.899Z,0.70
2023-03-25T15:37:17.956Z,0.82
2023-03-25T15:40:02.307Z,0.70
2023-03-25T15:42:47.409Z,0.70
2023-03-25T15:45:51.766Z,0.90
2023-03-25T15:48:21.066Z,0.73
2023-03-25T15:51:39.123Z,1.00
2023-03-25T15:54:28.006Z,0.47
2023-03-25T15:57:01.213Z,0.80
2023-03-25T15:59:55.601Z,0.75
2023-03-25T16:02:37.091Z,0.50
2023-03-25T16:05:05.080Z,0.80
2023-03-25T16:07:34.183Z,0.90
2023-03-25T16:10:20.884Z,0.70
2023-03-25T16:12:50.086Z,0.62
2023-03-25T16:15:22.710Z,0.93
2023-03-25T16:17:50.565Z,0.75
2023-03-25T16:20:25.924Z,0.70
2023-03-25T16:22:59.517Z,0.80
2023-03-25T16:25:38.251Z,1.17
2023-03-25T16:28:17.234Z,1.12
2023-03-25T16:33:58.678Z,1.10
2023-03-25T16:36:25.893Z,0.82
2023-03-25T16:38:52.909Z,0.82
2023-03-25T16:41:19.725Z,1.15
2023-03-25T16:43:46.423Z,2.08
2023-03-25T16:46:15.858Z,4.20
2023-03-25T16:48:49.250Z,1.50
2023-03-25T16:51:36.113Z,0.98
2023-03-25T16:54:09.709Z,1.62
2023-03-25T16:56:40.463Z,0.98
2023-03-25T16:59:24.784Z,1.20
2023-03-25T17:01:55.057Z,1.77
2023-03-25T17:04:27.613Z,1.30
2023-03-25T17:07:01.049Z,1.25
2023-03-25T17:09:34.402Z,1.25
2023-03-25T17:12:06.132Z,1.20
2023-03-25T17:14:37.221Z,1.50
2023-03-25T17:17:22.132Z,1.30
2023-03-25T17:19:51.582Z,1.67
2023-03-25T17:22:28.217Z,1.62
2023-03-25T17:25:12.310Z,1.70
2023-03-25T17:27:40.680Z,1.33
2023-03-25T17:30:33.630Z,1.40
2023-03-25T17:33:18.078Z,1.37
2023-03-25T17:35:54.325Z,1.60
2023-03-25T17:38:27.731Z,2.10
2023-03-25T17:41:01.520Z,1.85
2023-03-25T17:43:31.995Z,1.90
2023-03-25T17:46:00.649Z,1.83
2023-03-25T17:48:28.083Z,2.87
2023-03-25T17:50:56.993Z,3.58
2023-03-25T17:53:24.849Z,4.25
2023-03-25T17:55:52.143Z,3.45
2023-03-25T17:58:21.015Z,3.28
2023-03-25T18:00:53.085Z,3.30
2023-03-25T18:03:23.314Z,3.45
2023-03-25T18:05:55.704Z,2.65
2023-03-25T18:08:28.018Z,2.50
2023-03-25T18:10:56.307Z,2.25
2023-03-25T18:13:26.720Z,3.15
2023-03-25T18:15:53.985Z,3.12
2023-03-25T18:18:26.196Z,3.40
2023-03-25T18:20:56.005Z,2.90
2023-03-25T18:23:23.629Z,2.78
2023-03-25T18:25:50.647Z,2.28
2023-03-25T18:28:17.664Z,2.00
2023-03-25T18:30:54.117Z,2.15
2023-03-25T18:33:21.416Z,4.30
2023-03-25T18:35:48.158Z,4.62
2023-03-25T18:38:17.846Z,4.50
2023-03-25T18:40:44.958Z,3.75
2023-03-25T18:43:11.575Z,4.22
2023-03-25T18:45:38.291Z,4.05
2023-03-25T18:48:05.642Z,3.92
2023-03-25T18:50:36.556Z,4.10
2023-03-25T18:53:04.954Z,4.03
2023-03-25T18:55:33.071Z,3.70
2023-03-25T18:58:04.348Z,4.47
2023-03-25T19:00:40.861Z,4.00
2023-03-25T19:03:07.490Z,4.10
2023-03-25T19:05:34.071Z,4.10
2023-03-25T19:08:01.008Z,4.97
2023-03-25T19:10:30.390Z,5.10
2023-03-25T19:12:57.426Z,5.22
2023-03-25T19:15:27.640Z,3.87
2023-03-25T19:17:58.435Z,3.40
2023-03-25T19:20:29.363Z,2.60
2023-03-25T19:22:56.563Z,3.10
2023-03-25T19:25:23.127Z,2.55
2023-03-25T19:27:50.108Z,2.47
2023-03-25T19:30:22.156Z,2.72
2023-03-25T19:32:51.785Z,2.30
2023-03-25T19:35:20.137Z,2.55
2023-03-25T19:37:56.239Z,2.22
2023-03-25T19:40:26.284Z,2.67
2023-03-25T19:42:54.992Z,2.62
2023-03-25T19:45:22.743Z,3.12
2023-03-25T19:47:49.858Z,2.45
2023-03-25T19:50:19.116Z,2.80
2023-03-25T19:52:49.659Z,2.15
2023-03-25T19:55:16.631Z,2.65
2023-03-25T19:57:44.823Z,2.65
2023-03-25T20:00:15.627Z,2.42
2023-03-25T20:02:44.156Z,2.30
2023-03-25T20:05:12.271Z,2.40
2023-03-25T20:07:40.571Z,2.22
2023-03-25T20:10:19.086Z,2.17
2023-03-25T20:12:48.089Z,2.30
2023-03-25T20:15:16.639Z,1.90
2023-03-25T20:17:43.668Z,2.37
2023-03-25T20:20:20.535Z,2.03
2023-03-25T20:22:48.363Z,2.08
2023-03-25T20:25:16.211Z,1.85
2023-03-25T20:27:43.375Z,1.80
2023-03-25T20:30:28.957Z,1.90
2023-03-25T20:33:24.199Z,1.75
2023-03-25T20:35:56.369Z,1.98
2023-03-25T20:38:23.369Z,1.60
2023-03-25T20:40:54.316Z,1.80
2023-03-25T20:43:21.004Z,1.58
2023-03-25T20:45:47.542Z,1.40
2023-03-25T20:48:14.220Z,1.70
2023-03-25T20:50:40.877Z,1.80
2023-03-25T20:53:07.428Z,1.60
2023-03-25T20:55:34.057Z,1.60
2023-03-25T20:58:00.860Z,1.60
2023-03-25T21:00:28.071Z,1.30
2023-03-25T21:02:55.569Z,1.62
2023-03-25T21:05:22.364Z,1.55
2023-03-25T21:07:49.600Z,1.50
2023-03-25T21:10:16.448Z,1.20
2023-03-25T21:12:44.664Z,1.40
2023-03-25T21:15:14.899Z,1.20
2023-03-25T21:17:42.163Z,1.50
2023-03-25T21:20:09.861Z,1.10
2023-03-25T21:22:43.065Z,1.00
2023-03-25T21:25:11.296Z,1.00
2023-03-25T21:27:39.524Z,1.00
2023-03-25T21:30:09.664Z,1.02
2023-03-25T21:32:37.410Z,1.05
2023-03-25T21:35:53.567Z,0.80
2023-03-25T21:38:48.940Z,0.52
2023-03-25T21:41:15.546Z,1.05
2023-03-25T21:43:42.406Z,0.52
2023-03-25T21:46:10.327Z,0.60
2023-03-25T21:51:20.333Z,0.40
2023-03-25T21:53:47.499Z,0.80
2023-03-25T21:56:17.883Z,0.43
2023-03-25T21:58:45.218Z,0.43
2023-03-25T22:01:14.802Z,0.50
2023-03-25T22:03:45.415Z,0.57
2023-03-25T22:06:18.228Z,0.30
2023-03-25T22:08:45.813Z,0.43
2023-03-25T22:11:21.077Z,0.35
2023-03-25T22:13:48.979Z,0.22
2023-03-25T22:16:17.448Z,0.40
2023-03-25T22:18:44.510Z,0.30
2023-03-25T22:21:24.030Z,0.45
2023-03-25T22:23:54.883Z,0.40
2023-03-25T22:26:23.237Z,0.40
2023-03-25T22:29:00.593Z,0.50
2023-03-25T22:31:32.516Z,0.55
2023-03-25T22:34:10.843Z,0.60
2023-03-25T22:36:49.670Z,0.47
2023-03-25T22:39:21.050Z,0.60
2023-03-25T22:41:47.684Z,0.30
2023-03-25T22:44:17.033Z,0.55
2023-03-25T22:46:44.803Z,0.60
2023-03-25T22:49:11.459Z,0.47
2023-03-25T22:51:38.014Z,0.50
2023-03-25T22:54:05.350Z,0.60
2023-03-25T22:56:35.345Z,0.77
2023-03-25T22:59:04.106Z,0.60
2023-03-25T23:01:31.014Z,0.30
2023-03-25T23:06:35.512Z,0.50
2023-03-25T23:09:04.829Z,0.50
2023-03-25T23:11:31.737Z,0.50
2023-03-25T23:14:06.725Z,0.50
2023-03-25T23:16:34.781Z,0.50
2023-03-25T23:19:10.037Z,0.70
2023-03-25T23:21:51.763Z,0.57
2023-03-25T23:24:38.024Z,0.50
2023-03-25T23:27:07.312Z,0.62
2023-03-25T23:29:39.222Z,0.80
2023-03-25T23:32:07.348Z,0.50
2023-03-25T23:34:40.288Z,0.70
2023-03-25T23:39:35.149Z,0.77
2023-03-25T23:42:13.612Z,1.17
2023-03-25T23:44:45.658Z,0.57
2023-03-25T23:47:12.250Z,0.60
2023-03-25T23:49:38.896Z,0.70
2023-03-25T23:52:11.123Z,0.82
2023-03-25T23:54:39.230Z,0.90
2023-03-25T23:57:06.063Z,0.68
2023-03-25T23:59:47.948Z,0.60
